Time;durP1;ratioP1;P1;durP2;ratioP2;P2;SDS_P1;SDS_P2;PMS_P1;PMS_P2;Temp;Humidity;BMP_temperature;BMP_pressure;BME280_temperature;BME280_humidity;BME280_pressure;Samples;Min_cycle;Max_cycle;Signal;HPM_P1;HPM_P2
2021/10/25 00:00:05;;;;;;;;;;;;;;;21.49;55.37;101780.94;2091411;28;803;-59
2021/10/25 00:01:06;;;;;;;;;;;;;;;21.48;55.44;101780.06;2091426;28;1190;-58
2021/10/25 00:02:07;;;;;;;;;;;;;;;21.53;55.13;101782.63;2091187;28;1927;-59
2021/10/25 00:03:07;;;;;;;;;;;;;;;21.51;56.41;101778.22;2091436;28;752;-59
2021/10/25 00:04:07;;;;;;;;;;;;;;;21.47;56.30;101782.81;2091367;28;1036;-58
2021/10/25 00:05:08;;;;;;;;;;;;;;;21.48;55.16;101782.75;2091415;28;767;-59
2021/10/25 00:06:08;;;;;;;;;;;;;;;21.56;54.65;101790.66;2091385;28;768;-58
2021/10/25 00:07:08;;;;;;;;;;;;;;;21.47;55.19;101782.81;2091427;28;1033;-59
2021/10/25 00:08:08;;;;;;;;;;;;;;;21.51;55.66;101780.91;2091342;28;985;-59
2021/10/25 00:09:09;;;;;;;;;;;;;;;21.44;55.69;101786.44;2091221;28;827;-58
2021/10/25 00:10:09;;;;;;;;;;;;;;;21.38;55.37;101793.78;2091223;28;1013;-58
2021/10/25 00:11:10;;;;;;;;;;;;;;;21.40;55.55;101787.44;2091466;28;862;-59
2021/10/25 00:12:10;;;;;;;;;;;;;;;21.39;55.88;101782.09;2091310;28;933;-58
2021/10/25 00:13:11;;;;;;;;;;;;;;;21.35;55.21;101783.94;2091404;28;860;-59
2021/10/25 00:14:11;;;;;;;;;;;;;;;21.44;54.44;101780.19;2091432;28;838;-58
2021/10/25 00:15:11;;;;;;;;;;;;;;;21.43;55.58;101781.09;2090973;28;1016;-59
2021/10/25 00:16:11;;;;;;;;;;;;;;;21.41;55.48;101783.81;2091276;28;855;-59
2021/10/25 00:17:11;;;;;;;;;;;;;;;21.44;54.61;101782.88;2091345;28;1078;-59
2021/10/25 00:18:11;;;;;;;;;;;;;;;21.44;55.95;101783.75;2091445;28;895;-58
2021/10/25 00:19:12;;;;;;;;;;;;;;;21.44;53.88;101786.44;2091366;28;795;-59
2021/10/25 00:20:13;;;;;;;;;;;;;;;21.44;56.21;101785.56;2091184;28;833;-58
2021/10/25 00:21:13;;;;;;;;;;;;;;;21.41;55.78;101781.13;2091372;28;788;-59
2021/10/25 00:22:13;;;;;;;;;;;;;;;21.44;55.18;101778.34;2091325;28;1951;-59
2021/10/25 00:23:14;;;;;;;;;;;;;;;21.39;55.96;101777.56;2090668;28;1001;-59
2021/10/25 00:24:14;;;;;;;;;;;;;;;21.35;55.05;101780.38;2090834;28;986;-58
2021/10/25 00:25:14;;;;;;;;;;;;;;;21.37;55.04;101787.50;2091285;28;1002;-60
2021/10/25 00:26:14;;;;;;;;;;;;;;;21.35;54.61;101778.56;2091264;28;1338;-58
2021/10/25 00:27:14;;;;;;;;;;;;;;;21.46;53.25;101783.72;2091355;28;790;-58
2021/10/25 00:28:14;;;;;;;;;;;;;;;21.38;55.04;101778.50;2091048;28;854;-59
2021/10/25 00:29:15;;;;;;;;;;;;;;;21.39;56.17;101774.00;2091261;28;1334;-58
2021/10/25 00:30:15;;;;;;;;;;;;;;;21.39;54.90;101780.25;2091328;28;803;-58
2021/10/25 00:31:16;;;;;;;;;;;;;;;21.36;55.87;101776.75;2091299;28;876;-58
2021/10/25 00:32:16;;;;;;;;;;;;;;;21.37;54.89;101771.31;2091279;28;984;-59
2021/10/25 00:33:17;;;;;;;;;;;;;;;21.35;53.93;101773.16;2091333;28;775;-59
2021/10/25 00:34:17;;;;;;;;;;;;;;;21.39;53.60;101774.88;2091273;28;819;-58
2021/10/25 00:35:17;;;;;;;;;;;;;;;21.48;54.38;101771.09;2091348;28;972;-59
2021/10/25 00:36:17;;;;;;;;;;;;;;;21.40;55.38;101771.25;2091241;28;977;-59
2021/10/25 00:37:17;;;;;;;;;;;;;;;21.37;53.42;101776.72;2093824;28;1200;-59
2021/10/25 00:38:18;;;;;;;;;;;;;;;21.39;54.73;101776.69;2099521;28;965;-58
2021/10/25 00:39:19;;;;;;;;;;;;;;;21.36;54.39;101774.94;2099551;28;787;-59
2021/10/25 00:40:20;;;;;;;;;;;;;;;21.44;55.50;101772.97;2099557;28;786;-58
2021/10/25 00:41:20;;;;;;;;;;;;;;;21.43;55.08;101771.19;2099403;28;1066;-59
2021/10/25 00:42:20;;;;;;;;;;;;;;;21.27;55.62;101775.13;2099300;28;1894;-59
2021/10/25 00:43:20;;;;;;;;;;;;;;;21.33;55.75;101770.50;2099523;28;843;-58
2021/10/25 00:44:21;;;;;;;;;;;;;;;21.39;55.19;101774.00;2099294;28;847;-58
2021/10/25 00:45:21;;;;;;;;;;;;;;;21.38;55.02;101767.72;2099573;28;846;-59
2021/10/25 00:46:22;;;;;;;;;;;;;;;21.36;54.10;101774.94;2099599;28;1242;-59
2021/10/25 00:47:22;;;;;;;;;;;;;;;21.34;54.00;101768.69;2099387;28;854;-59
2021/10/25 00:48:22;;;;;;;;;;;;;;;21.33;55.79;101772.31;2099522;28;1417;-58
2021/10/25 00:49:23;;;;;;;;;;;;;;;21.23;56.88;101774.31;2099559;28;787;-58
2021/10/25 00:50:23;;;;;;;;;;;;;;;21.32;55.28;101771.44;2099497;28;811;-60
2021/10/25 00:51:23;;;;;;;;;;;;;;;21.35;54.52;101767.78;2101005;28;739;-58
2021/10/25 00:52:23;;;;;;;;;;;;;;;21.40;55.21;101768.56;2101041;28;826;-58
2021/10/25 00:53:24;;;;;;;;;;;;;;;21.28;56.01;101774.22;2101067;28;977;-59
2021/10/25 00:54:24;;;;;;;;;;;;;;;21.27;55.21;101777.81;2101091;28;1025;-59
2021/10/25 00:55:24;;;;;;;;;;;;;;;21.26;55.84;101774.25;2100911;28;993;-58
2021/10/25 00:56:25;;;;;;;;;;;;;;;21.35;54.42;101778.56;2100903;28;1149;-59
2021/10/25 00:57:25;;;;;;;;;;;;;;;21.38;54.11;101773.09;2101071;28;822;-59
2021/10/25 00:58:25;;;;;;;;;;;;;;;21.40;55.02;101759.59;2100970;28;799;-59
2021/10/25 00:59:25;;;;;;;;;;;;;;;21.39;53.48;101769.47;2100984;28;1021;-59
2021/10/25 01:00:25;;;;;;;;;;;;;;;21.36;56.18;101766.84;2100908;28;945;-59
2021/10/25 01:01:26;;;;;;;;;;;;;;;21.29;55.42;101767.91;2101026;28;969;-58
2021/10/25 01:02:26;;;;;;;;;;;;;;;21.27;54.60;101765.25;2100908;28;1917;-59
2021/10/25 01:03:26;;;;;;;;;;;;;;;21.31;53.96;101771.44;2100537;28;982;-59
2021/10/25 01:04:27;;;;;;;;;;;;;;;21.33;55.42;101766.91;2100935;28;1175;-59
2021/10/25 01:05:28;;;;;;;;;;;;;;;21.35;55.19;101767.78;2100979;28;1099;-58
2021/10/25 01:06:29;;;;;;;;;;;;;;;21.26;55.08;101767.97;2100936;28;807;-58
2021/10/25 01:07:29;;;;;;;;;;;;;;;21.27;54.84;101764.34;2100675;28;1192;-59
2021/10/25 01:08:34;;;;;;;;;;;;;;;21.23;55.62;101768.03;2100755;28;831;-59
2021/10/25 01:09:35;;;;;;;;;;;;;;;21.28;54.49;101761.66;2100936;28;866;-58
2021/10/25 01:10:36;;;;;;;;;;;;;;;21.31;55.28;101772.34;2100905;28;1215;-60
2021/10/25 01:11:37;;;;;;;;;;;;;;;21.25;55.71;101766.19;2100520;28;881;-59
2021/10/25 01:12:37;;;;;;;;;;;;;;;21.23;55.09;101763.53;2100889;28;842;-59
2021/10/25 01:13:39;;;;;;;;;;;;;;;21.24;55.41;101772.50;2100919;28;779;-59
2021/10/25 01:14:39;;;;;;;;;;;;;;;21.28;55.68;101767.03;2101135;28;847;-59
2021/10/25 01:15:39;;;;;;;;;;;;;;;21.28;54.90;101767.03;2100863;28;834;-60
2021/10/25 01:16:39;;;;;;;;;;;;;;;21.31;54.77;101766.06;2100623;28;965;-60
2021/10/25 01:17:39;;;;;;;;;;;;;;;21.32;54.50;101768.75;2100904;28;756;-58
2021/10/25 01:18:40;;;;;;;;;;;;;;;21.23;54.65;101768.03;2100818;28;903;-58
2021/10/25 01:19:40;;;;;;;;;;;;;;;21.25;55.55;101761.72;2100826;28;815;-58
2021/10/25 01:20:40;;;;;;;;;;;;;;;21.23;54.52;101766.25;2100864;28;856;-59
2021/10/25 01:21:40;;;;;;;;;;;;;;;21.16;56.24;101765.50;2100804;28;1963;-59
2021/10/25 01:22:40;;;;;;;;;;;;;;;21.20;55.41;101760.03;2100734;28;855;-59
2021/10/25 01:23:40;;;;;;;;;;;;;;;21.19;56.00;101759.16;2100840;28;981;-59
2021/10/25 01:24:42;;;;;;;;;;;;;;;21.20;55.47;101749.28;2100810;28;891;-59
2021/10/25 01:25:42;;;;;;;;;;;;;;;21.20;54.77;101751.97;2100748;28;976;-59
2021/10/25 01:26:43;;;;;;;;;;;;;;;21.27;55.29;101754.47;2100811;28;1048;-58
2021/10/25 01:27:43;;;;;;;;;;;;;;;21.23;54.90;101751.88;2100112;28;890;-59
2021/10/25 01:28:44;;;;;;;;;;;;;;;;;;2100259;28;985;-59
2021/10/25 01:29:44;;;;;;;;;;;;;;;21.29;55.67;101755.34;2100713;28;1028;-59
2021/10/25 01:30:45;;;;;;;;;;;;;;;21.17;55.20;101747.50;2100641;28;815;-59
2021/10/25 01:31:46;;;;;;;;;;;;;;;21.14;55.76;101743.09;2100836;28;850;-59
2021/10/25 01:32:47;;;;;;;;;;;;;;;21.09;55.20;101742.31;2100755;28;972;-59
2021/10/25 01:33:49;;;;;;;;;;;;;;;21.22;54.85;101750.09;2100347;28;1255;-59
2021/10/25 01:34:49;;;;;;;;;;;;;;;21.22;56.11;101742.00;2100782;28;981;-59
2021/10/25 01:35:49;;;;;;;;;;;;;;;21.26;55.71;101744.63;2100707;28;1024;-59
2021/10/25 01:36:50;;;;;;;;;;;;;;;21.23;56.02;101743.78;2100740;28;822;-59
2021/10/25 01:37:50;;;;;;;;;;;;;;;21.27;54.89;101746.41;2093678;28;1176;-58
2021/10/25 01:38:50;;;;;;;;;;;;;;;21.24;56.42;101749.16;2092178;28;816;-59
2021/10/25 01:39:50;;;;;;;;;;;;;;;21.28;54.50;101747.25;2092388;28;1009;-58
2021/10/25 01:40:51;;;;;;;;;;;;;;;21.28;56.03;101744.56;2092395;28;1005;-59
2021/10/25 01:41:51;;;;;;;;;;;;;;;21.27;55.47;101749.09;2092160;28;1957;-59
2021/10/25 01:42:51;;;;;;;;;;;;;;;21.23;54.78;101746.47;2092404;28;823;-59
2021/10/25 01:43:52;;;;;;;;;;;;;;;21.18;55.20;101751.97;2092353;28;1491;-59
2021/10/25 01:44:52;;;;;;;;;;;;;;;;;;2092447;28;998;-59
2021/10/25 01:45:53;;;;;;;;;;;;;;;21.17;55.02;101743.03;2092382;28;780;-59
2021/10/25 01:46:53;;;;;;;;;;;;;;;21.28;54.29;101740.09;2092356;28;862;-59
2021/10/25 01:47:54;;;;;;;;;;;;;;;21.33;54.39;101742.66;2092318;28;1036;-59
2021/10/25 01:48:54;;;;;;;;;;;;;;;21.19;55.37;101745.66;2092357;28;800;-59
2021/10/25 01:49:55;;;;;;;;;;;;;;;21.30;54.94;101740.94;2092201;28;1033;-59
2021/10/25 01:50:55;;;;;;;;;;;;;;;21.27;54.17;101743.69;2092334;28;1029;-59
2021/10/25 01:51:55;;;;;;;;;;;;;;;21.26;56.35;101746.41;2092327;28;785;-59
2021/10/25 01:52:55;;;;;;;;;;;;;;;21.28;56.02;101741.88;2092289;28;1436;-59
2021/10/25 01:53:56;;;;;;;;;;;;;;;21.29;54.51;101739.16;2092399;28;780;-59
2021/10/25 01:54:56;;;;;;;;;;;;;;;21.24;55.48;101738.38;2092213;28;1040;-59
2021/10/25 01:55:59;;;;;;;;;;;;;;;21.25;55.78;101739.25;2091890;28;1388;-59
2021/10/25 01:57:00;;;;;;;;;;;;;;;21.23;54.93;101741.09;2092321;28;787;-59
2021/10/25 01:58:00;;;;;;;;;;;;;;;;;;2092249;28;768;-59
2021/10/25 01:59:00;;;;;;;;;;;;;;;21.32;54.69;101739.09;2092289;28;795;-59
2021/10/25 02:00:00;;;;;;;;;;;;;;;21.29;55.04;101738.25;2092705;28;1634;-59
2021/10/25 02:01:01;;;;;;;;;;;;;;;21.24;54.81;101743.75;2100253;28;985;-59
2021/10/25 02:02:01;;;;;;;;;;;;;;;21.20;54.24;101739.34;2100059;28;1914;-59
2021/10/25 02:03:01;;;;;;;;;;;;;;;21.23;56.35;101741.09;2100569;28;1060;-59
2021/10/25 02:04:02;;;;;;;;;;;;;;;21.19;54.63;101732.19;2100396;28;1045;-59
2021/10/25 02:05:02;;;;;;;;;;;;;;;21.18;54.19;101730.41;2100596;28;897;-59
2021/10/25 02:06:03;;;;;;;;;;;;;;;21.18;55.33;101728.63;2100406;28;899;-59
2021/10/25 02:07:03;;;;;;;;;;;;;;;21.20;56.36;101733.09;2100567;28;827;-59
2021/10/25 02:08:03;;;;;;;;;;;;;;;21.30;54.95;101727.47;2100416;28;997;-59
2021/10/25 02:09:04;;;;;;;;;;;;;;;21.24;55.37;101733.00;2100381;28;818;-59
2021/10/25 02:10:04;;;;;;;;;;;;;;;21.23;54.70;101727.63;2100480;28;1126;-59
2021/10/25 02:11:04;;;;;;;;;;;;;;;21.28;54.74;101732.00;2100562;28;885;-59
2021/10/25 02:12:05;;;;;;;;;;;;;;;21.31;53.94;101726.53;2100416;28;997;-60
2021/10/25 02:13:05;;;;;;;;;;;;;;;21.23;54.45;101727.63;2100474;28;935;-60
2021/10/25 02:14:05;;;;;;;;;;;;;;;21.14;55.67;101736.78;2100458;28;982;-59
2021/10/25 02:15:06;;;;;;;;;;;;;;;21.15;54.85;101731.41;2100472;28;806;-59
2021/10/25 02:16:06;;;;;;;;;;;;;;;21.20;55.10;101731.28;2100388;28;918;-59
2021/10/25 02:17:06;;;;;;;;;;;;;;;21.16;55.23;101727.78;2100159;28;842;-59
2021/10/25 02:18:07;;;;;;;;;;;;;;;21.08;56.66;101729.75;2100415;28;910;-59
2021/10/25 02:19:08;;;;;;;;;;;;;;;21.15;55.71;101733.19;2100474;28;767;-59
2021/10/25 02:20:08;;;;;;;;;;;;;;;21.09;55.76;101734.22;2100423;28;885;-59
2021/10/25 02:21:12;;;;;;;;;;;;;;;21.20;54.41;101720.50;2100479;28;846;-59
2021/10/25 02:22:12;;;;;;;;;;;;;;;;;;2100173;28;1889;-59
2021/10/25 02:23:13;;;;;;;;;;;;;;;21.20;55.64;101725.88;2100229;28;865;-59
2021/10/25 02:24:13;;;;;;;;;;;;;;;21.32;54.85;101719.31;2100361;28;771;-60
2021/10/25 02:25:13;;;;;;;;;;;;;;;21.21;54.34;101715.97;2100196;28;768;-59
2021/10/25 02:26:13;;;;;;;;;;;;;;;21.12;55.52;101715.28;2100152;28;882;-59
2021/10/25 02:27:14;;;;;;;;;;;;;;;21.26;54.51;101714.97;2100318;28;901;-59
2021/10/25 02:28:14;;;;;;;;;;;;;;;21.16;55.60;101717.00;2100170;28;988;-59
2021/10/25 02:29:14;;;;;;;;;;;;;;;21.12;56.04;101709.91;2100303;28;834;-59
2021/10/25 02:30:16;;;;;;;;;;;;;;;21.13;55.46;101711.69;2100295;28;917;-60
2021/10/25 02:31:17;;;;;;;;;;;;;;;21.19;55.87;101707.94;2100283;28;806;-59
2021/10/25 02:32:18;;;;;;;;;;;;;;;21.14;54.88;101709.84;2100288;28;910;-59
2021/10/25 02:33:21;;;;;;;;;;;;;;;21.20;55.16;101708.84;2100386;28;860;-59
2021/10/25 02:34:21;;;;;;;;;;;;;;;21.30;53.52;101713.09;2100261;28;808;-59
2021/10/25 02:35:22;;;;;;;;;;;;;;;21.28;54.65;101715.84;2100262;28;1416;-59
2021/10/25 02:36:22;;;;;;;;;;;;;;;21.31;54.19;101712.16;2100291;28;1106;-59
2021/10/25 02:37:23;;;;;;;;;;;;;;;21.22;54.24;101705.19;2100259;28;1425;-58
2021/10/25 02:38:23;;;;;;;;;;;;;;;21.24;54.60;101705.13;2100219;28;787;-59
2021/10/25 02:39:24;;;;;;;;;;;;;;;21.25;54.38;101707.81;2099930;28;1352;-59
2021/10/25 02:40:25;;;;;;;;;;;;;;;21.19;54.65;101697.16;2100260;28;795;-59
2021/10/25 02:41:27;;;;;;;;;;;;;;;;;;2100250;28;854;-59
2021/10/25 02:42:27;;;;;;;;;;;;;;;21.13;55.32;101700.00;2100155;28;1902;-59
2021/10/25 02:43:27;;;;;;;;;;;;;;;21.15;54.38;101693.69;2100211;28;1208;-59
2021/10/25 02:44:28;;;;;;;;;;;;;;;21.18;55.14;101696.31;2100177;28;843;-60
2021/10/25 02:45:28;;;;;;;;;;;;;;;21.16;55.04;101687.38;2100213;28;921;-59
2021/10/25 02:46:28;;;;;;;;;;;;;;;21.24;54.61;101687.19;2100101;28;773;-58
2021/10/25 02:47:28;;;;;;;;;;;;;;;21.23;55.24;101687.19;2100113;28;925;-60
2021/10/25 02:48:29;;;;;;;;;;;;;;;21.13;55.35;101687.44;2100106;28;1044;-59
2021/10/25 02:49:29;;;;;;;;;;;;;;;21.12;55.93;101696.44;2099883;28;1009;-59
2021/10/25 02:50:30;;;;;;;;;;;;;;;21.17;55.11;101682.84;2100033;28;772;-59
2021/10/25 02:51:30;;;;;;;;;;;;;;;21.11;55.82;101643.47;2100187;28;803;-59
2021/10/25 02:52:30;;;;;;;;;;;;;;;21.20;54.22;101639.66;2100096;28;1067;-59
2021/10/25 02:53:30;;;;;;;;;;;;;;;21.23;54.77;101636.91;2100142;28;882;-59
2021/10/25 02:54:31;;;;;;;;;;;;;;;21.26;54.25;101639.53;2100059;28;974;-59
2021/10/25 02:55:31;;;;;;;;;;;;;;;21.18;55.73;101641.50;2099974;28;1002;-59
2021/10/25 02:56:31;;;;;;;;;;;;;;;21.22;55.23;101626.16;2099928;28;1291;-60
2021/10/25 02:57:31;;;;;;;;;;;;;;;21.18;55.69;101626.25;2100004;28;990;-59
2021/10/25 02:58:32;;;;;;;;;;;;;;;21.25;55.20;101671.88;2100085;28;974;-59
2021/10/25 02:59:32;;;;;;;;;;;;;;;21.12;55.36;101703.63;2100063;28;921;-59
2021/10/25 03:00:32;;;;;;;;;;;;;;;21.13;55.02;101694.59;2099938;28;913;-59
2021/10/25 03:01:32;;;;;;;;;;;;;;;21.14;54.84;101686.50;2099956;28;1894;-59
2021/10/25 03:02:33;;;;;;;;;;;;;;;21.14;54.48;101680.22;2100011;28;928;-59
2021/10/25 03:03:33;;;;;;;;;;;;;;;21.11;55.14;101689.28;2099746;28;767;-59
2021/10/25 03:04:33;;;;;;;;;;;;;;;21.20;54.20;101682.78;2099994;28;977;-59
2021/10/25 03:05:33;;;;;;;;;;;;;;;21.26;54.31;101684.44;2100014;28;870;-60
2021/10/25 03:06:34;;;;;;;;;;;;;;;21.18;55.18;101688.22;2099845;28;940;-59
2021/10/25 03:07:34;;;;;;;;;;;;;;;21.15;54.78;101688.28;2100002;28;875;-59
2021/10/25 03:08:34;;;;;;;;;;;;;;;21.15;55.46;101687.38;2099848;28;823;-60
2021/10/25 03:09:34;;;;;;;;;;;;;;;21.16;55.30;101684.66;2099989;28;858;-59
2021/10/25 03:10:35;;;;;;;;;;;;;;;21.10;55.80;101698.28;2099927;28;1290;-59
2021/10/25 03:11:35;;;;;;;;;;;;;;;21.23;54.80;101700.66;2099946;28;845;-59
2021/10/25 03:12:36;;;;;;;;;;;;;;;21.14;55.28;101701.78;2099957;28;771;-59
2021/10/25 03:13:36;;;;;;;;;;;;;;;21.10;55.58;101710.84;2099313;28;850;-59
2021/10/25 03:14:37;;;;;;;;;;;;;;;21.15;55.29;101700.84;2099769;28;1217;-59
2021/10/25 03:15:37;;;;;;;;;;;;;;;21.13;55.18;101700.91;2099273;28;1288;-59
2021/10/25 03:16:38;;;;;;;;;;;;;;;21.12;55.18;101699.13;2099390;28;1032;-59
2021/10/25 03:17:38;;;;;;;;;;;;;;;21.08;54.91;101697.41;2099954;28;806;-59
2021/10/25 03:18:38;;;;;;;;;;;;;;;21.11;54.42;101701.84;2099936;28;840;-60
2021/10/25 03:19:40;;;;;;;;;;;;;;;21.16;54.01;101708.00;2099807;28;860;-59
2021/10/25 03:20:41;;;;;;;;;;;;;;;21.14;55.67;101705.38;2100001;28;873;-59
2021/10/25 03:21:41;;;;;;;;;;;;;;;21.15;54.54;101696.38;2099841;28;1905;-60
2021/10/25 03:22:42;;;;;;;;;;;;;;;21.20;53.70;101661.22;2099523;28;897;-59
2021/10/25 03:23:42;;;;;;;;;;;;;;;21.20;55.26;101653.13;2099896;28;973;-59
2021/10/25 03:24:43;;;;;;;;;;;;;;;21.13;55.14;101647.03;2099952;28;1101;-59
2021/10/25 03:25:44;;;;;;;;;;;;;;;21.11;54.54;101642.56;2099919;28;835;-59
2021/10/25 03:26:44;;;;;;;;;;;;;;;21.15;54.29;101641.59;2099896;28;890;-59
2021/10/25 03:27:45;;;;;;;;;;;;;;;;;;2099902;28;799;-59
2021/10/25 03:28:45;;;;;;;;;;;;;;;21.11;54.62;101639.88;2099936;28;870;-58
2021/10/25 03:29:46;;;;;;;;;;;;;;;21.06;55.30;101637.31;2099867;28;831;-59
2021/10/25 03:30:47;;;;;;;;;;;;;;;21.11;54.72;101632.69;2099525;28;779;-59
2021/10/25 03:31:48;;;;;;;;;;;;;;;21.11;55.11;101642.56;2099913;28;850;-59
2021/10/25 03:32:48;;;;;;;;;;;;;;;21.07;54.75;101632.78;2099845;28;866;-59
2021/10/25 03:33:49;;;;;;;;;;;;;;;21.09;55.93;101631.84;2099869;28;823;-59
2021/10/25 03:34:50;;;;;;;;;;;;;;;21.15;54.93;101629.00;2099820;28;801;-59
2021/10/25 03:35:50;;;;;;;;;;;;;;;21.14;55.20;101624.53;2099854;28;1052;-59
2021/10/25 03:36:51;;;;;;;;;;;;;;;21.23;54.72;101628.81;2099787;28;783;-59
2021/10/25 03:37:54;;;;;;;;;;;;;;;21.08;54.67;101624.69;2092513;28;1286;-59
2021/10/25 03:38:55;;;;;;;;;;;;;;;21.05;55.35;101626.53;2091379;28;842;-59
2021/10/25 03:39:56;;;;;;;;;;;;;;;21.09;55.39;101631.84;2091527;28;787;-59
2021/10/25 03:40:56;;;;;;;;;;;;;;;21.07;55.38;101622.91;2091592;28;830;-59
2021/10/25 03:41:57;;;;;;;;;;;;;;;21.05;56.19;101623.84;2091223;28;1894;-58
2021/10/25 03:42:58;;;;;;;;;;;;;;;21.08;55.19;101619.28;2091533;28;851;-59
2021/10/25 03:44:04;;;;;;;;;;;;;;;21.15;55.68;101618.25;2091516;28;850;-60
2021/10/25 03:45:16;;;;;;;;;;;;;;;21.06;54.96;101617.53;2091346;28;871;-59
2021/10/25 03:46:22;;;;;;;;;;;;;;;21.13;54.26;101612.00;2091509;28;897;-59
2021/10/25 03:47:31;;;;;;;;;;;;;;;21.16;55.31;101611.03;2091342;28;803;-59
2021/10/25 03:48:56;;;;;;;;;;;;;;;21.13;55.61;101616.47;2091533;28;850;-59
2021/10/25 03:50:04;;;;;;;;;;;;;;;21.09;55.88;101614.78;2091421;28;1712;-60
2021/10/25 03:51:07;;;;;;;;;;;;;;;21.08;55.19;101613.91;2091467;28;803;-59
2021/10/25 03:53:43;;;;;;;;;;;;;;;21.10;54.26;101617.47;2074088;28;1111;-58
2021/10/25 03:54:51;;;;;;;;;;;;;;;21.10;54.73;101613.84;2074181;28;879;-59
2021/10/25 03:56:03;;;;;;;;;;;;;;;21.13;54.40;101611.09;2073899;28;1278;-59
2021/10/25 03:58:23;;;;;;;;;;;;;;;21.11;55.32;101619.22;2074032;28;966;-59
2021/10/25 04:00:50;;;;;;;;;;;;;;;21.13;53.79;101600.31;2074178;28;1215;-60
2021/10/25 04:12:50;;;;;;;;;;;;;;;21.58;55.54;101581.22;2074074;28;724;-59
2021/10/25 04:25:49;;;;;;;;;;;;;;;23.48;54.35;101571.19;2075219;28;874;-61
2021/10/25 04:28:00;;;;;;;;;;;;;;;23.45;53.72;101565.88;2075670;28;772;-60
2021/10/25 04:29:00;;;;;;;;;;;;;;;23.49;53.79;101564.84;2075638;28;870;-59
2021/10/25 04:30:04;;;;;;;;;;;;;;;23.53;55.35;101562.91;2075631;28;827;-59
2021/10/25 04:31:04;;;;;;;;;;;;;;;23.63;53.61;101560.75;2089336;28;905;-59
2021/10/25 04:32:07;;;;;;;;;;;;;;;23.72;54.56;101559.56;2092776;28;839;-58
2021/10/25 04:33:08;;;;;;;;;;;;;;;23.78;55.51;101560.22;2093066;28;810;-58
2021/10/25 04:34:08;;;;;;;;;;;;;;;23.76;56.09;101551.25;2092898;28;822;-59
2021/10/25 04:35:09;;;;;;;;;;;;;;;23.71;56.10;101561.38;2092960;28;791;-59
2021/10/25 04:36:10;;;;;;;;;;;;;;;23.76;56.04;101556.69;2092836;28;876;-58
2021/10/25 04:37:10;;;;;;;;;;;;;;;23.78;56.42;101556.63;2094421;28;1307;-59
2021/10/25 04:38:10;;;;;;;;;;;;;;;23.67;54.95;101557.91;2101116;28;722;-58
2021/10/25 04:39:12;;;;;;;;;;;;;;;23.78;55.27;101545.81;2101115;28;866;-58
2021/10/25 04:40:13;;;;;;;;;;;;;;;23.71;55.29;101555.94;2101013;28;865;-60
2021/10/25 04:41:14;;;;;;;;;;;;;;;23.67;53.09;101554.28;2100509;28;815;-59
2021/10/25 04:42:16;;;;;;;;;;;;;;;23.60;53.11;101553.63;2100498;28;1894;-58
2021/10/25 04:43:17;;;;;;;;;;;;;;;23.57;53.04;101552.84;2101248;28;861;-59
2021/10/25 04:44:18;;;;;;;;;;;;;;;23.56;53.40;101551.06;2101129;28;779;-59
2021/10/25 04:45:19;;;;;;;;;;;;;;;23.56;53.28;101551.06;2101165;28;767;-58
2021/10/25 04:46:19;;;;;;;;;;;;;;;23.59;52.53;101549.16;2101167;28;1196;-59
2021/10/25 04:47:19;;;;;;;;;;;;;;;23.59;54.13;101553.69;2101082;28;849;-58
2021/10/25 04:48:19;;;;;;;;;;;;;;;23.61;54.13;101546.41;2101085;28;882;-59
2021/10/25 04:49:20;;;;;;;;;;;;;;;23.61;52.46;101549.09;2101182;28;835;-59
2021/10/25 04:50:22;;;;;;;;;;;;;;;23.61;51.81;101552.69;2100810;28;811;-59
2021/10/25 04:51:22;;;;;;;;;;;;;;;23.58;52.24;101560.91;2101093;28;1024;-59
2021/10/25 04:52:23;;;;;;;;;;;;;;;23.66;51.27;101555.22;2101125;28;1183;-60
2021/10/25 04:53:23;;;;;;;;;;;;;;;23.63;51.89;101558.94;2101117;28;831;-59
2021/10/25 04:54:23;;;;;;;;;;;;;;;23.67;53.45;101562.41;2101089;28;1095;-59
2021/10/25 04:55:23;;;;;;;;;;;;;;;23.84;53.35;101556.41;2101056;28;866;-59
2021/10/25 04:56:23;;;;;;;;;;;;;;;23.83;51.85;101551.94;2100908;28;1325;-60
2021/10/25 04:57:23;;;;;;;;;;;;;;;23.88;52.96;101546.34;2101064;28;999;-59
2021/10/25 04:58:24;;;;;;;;;;;;;;;23.87;55.60;101553.56;2101031;28;830;-59
2021/10/25 04:59:24;;;;;;;;;;;;;;;23.92;53.62;101542.59;2101055;28;772;-60
2021/10/25 05:00:24;;;;;;;;;;;;;;;23.95;54.92;101540.66;2101066;28;842;-59
2021/10/25 05:01:24;;;;;;;;;;;;;;;23.97;53.82;101541.47;2100688;28;1029;-59
2021/10/25 05:02:24;;;;;;;;;;;;;;;23.97;51.43;101536.06;2100932;28;1914;-59
2021/10/25 05:03:24;;;;;;;;;;;;;;;24.00;52.91;101534.22;2100973;28;843;-59
2021/10/25 05:04:25;;;;;;;;;;;;;;;24.03;52.88;101528.69;2100930;28;977;-59
2021/10/25 05:05:25;;;;;;;;;;;;;;;23.97;53.57;101537.91;2101071;28;842;-60
2021/10/25 05:06:25;;;;;;;;;;;;;;;24.09;51.37;101526.66;2100765;28;846;-59
2021/10/25 05:07:26;;;;;;;;;;;;;;;24.11;52.32;101522.06;2100574;28;1153;-59
2021/10/25 05:08:28;;;;;;;;;;;;;;;24.11;52.50;101524.78;2100953;28;838;-59
2021/10/25 05:09:28;;;;;;;;;;;;;;;24.13;51.68;101522.91;2101013;28;814;-59
2021/10/25 05:10:29;;;;;;;;;;;;;;;24.11;53.24;101513.97;2101071;28;750;-59
2021/10/25 05:11:29;;;;;;;;;;;;;;;24.05;53.52;101521.41;2100861;28;1228;-59
2021/10/25 05:12:30;;;;;;;;;;;;;;;24.10;52.81;101519.41;2100940;28;1072;-60
2021/10/25 05:13:30;;;;;;;;;;;;;;;24.07;51.83;101517.72;2100973;28;830;-59
2021/10/25 05:14:30;;;;;;;;;;;;;;;24.25;50.72;101518.84;2100692;28;981;-59
2021/10/25 05:15:32;;;;;;;;;;;;;;;24.22;53.25;101515.34;2100854;28;1210;-59
2021/10/25 05:16:32;;;;;;;;;;;;;;;24.28;51.84;101509.69;2101037;28;874;-59
2021/10/25 05:17:32;;;;;;;;;;;;;;;24.28;51.62;101517.81;2100816;28;854;-59
2021/10/25 05:18:33;;;;;;;;;;;;;;;24.13;51.90;101513.88;2100895;28;988;-60
2021/10/25 05:19:33;;;;;;;;;;;;;;;24.06;51.43;101507.84;2100895;28;780;-59
2021/10/25 05:20:33;;;;;;;;;;;;;;;24.06;51.45;101515.06;2100604;28;812;-59
2021/10/25 05:21:34;;;;;;;;;;;;;;;24.12;52.65;101514.81;2100891;28;1210;-59
2021/10/25 05:22:34;;;;;;;;;;;;;;;24.20;51.60;101503.69;2100822;28;2002;-58
2021/10/25 05:23:35;;;;;;;;;;;;;;;24.13;50.49;101509.38;2100842;28;981;-59
2021/10/25 05:24:35;;;;;;;;;;;;;;;24.22;51.76;101501.81;2100838;28;846;-59
2021/10/25 05:25:36;;;;;;;;;;;;;;;24.27;50.35;101499.81;2100844;28;822;-59
2021/10/25 05:26:36;;;;;;;;;;;;;;;24.32;51.08;101499.66;2100860;28;838;-59
2021/10/25 05:27:36;;;;;;;;;;;;;;;24.29;50.75;101497.94;2100743;28;1227;-59
2021/10/25 05:28:36;;;;;;;;;;;;;;;24.17;50.01;101495.69;2100859;28;838;-59
2021/10/25 05:29:37;;;;;;;;;;;;;;;24.21;50.66;101500.94;2100755;28;886;-58
2021/10/25 05:30:37;;;;;;;;;;;;;;;24.23;51.35;101500.88;2100641;28;1051;-59
2021/10/25 05:31:37;;;;;;;;;;;;;;;24.26;49.88;101492.63;2100807;28;784;-59
2021/10/25 05:32:37;;;;;;;;;;;;;;;24.18;50.47;101497.44;2100785;28;768;-59
2021/10/25 05:33:38;;;;;;;;;;;;;;;24.27;51.63;101499.81;2100444;28;828;-59
2021/10/25 05:34:39;;;;;;;;;;;;;;;24.33;50.17;101494.16;2100431;28;1680;-59
2021/10/25 05:35:39;;;;;;;;;;;;;;;24.27;49.48;101488.97;2100784;28;854;-60
2021/10/25 05:36:41;;;;;;;;;;;;;;;24.24;49.31;101492.72;2100068;28;1016;-61
2021/10/25 05:37:41;;;;;;;;;;;;;;;24.31;51.29;101489.75;2095014;28;1239;-59
2021/10/25 05:38:41;;;;;;;;;;;;;;;24.26;50.33;101490.81;2092469;28;981;-59
2021/10/25 05:39:41;;;;;;;;;;;;;;;24.30;51.34;101488.00;2092520;28;847;-59
2021/10/25 05:40:42;;;;;;;;;;;;;;;24.33;50.87;101486.03;2092458;28;898;-59
2021/10/25 05:41:44;;;;;;;;;;;;;;;24.31;51.05;101493.34;2092176;28;1897;-59
2021/10/25 05:42:44;;;;;;;;;;;;;;;24.27;51.83;101491.69;2092495;28;858;-59
2021/10/25 05:43:44;;;;;;;;;;;;;;;24.38;51.73;101481.31;2092400;28;1021;-59
2021/10/25 05:44:44;;;;;;;;;;;;;;;24.36;50.59;101488.63;2092490;28;996;-59
2021/10/25 05:45:45;;;;;;;;;;;;;;;24.36;50.10;101480.50;2092435;28;776;-60
2021/10/25 05:46:45;;;;;;;;;;;;;;;24.27;50.71;101479.06;2092299;28;847;-59
2021/10/25 05:47:47;;;;;;;;;;;;;;;24.35;51.36;101483.28;2092375;28;842;-59
2021/10/25 05:48:50;;;;;;;;;;;;;;;24.37;50.06;101478.69;2092402;28;913;-60